Time;durP1;ratioP1;P1;durP2;ratioP2;P2;SDS_P1;SDS_P2;PMS_P1;PMS_P2;Temp;Humidity;BMP_temperature;BMP_pressure;BME280_temperature;BME280_humidity;BME280_pressure;Samples;Min_cycle;Max_cycle;Signal;HPM_P1;HPM_P2
2023/12/08 00:01:14;;;;;;;20.83;13.50;;;;;;;;;;5076162;28;20788;-79
2023/12/08 00:03:40;;;;;;;21.88;14.13;;;;;;;;;;5072193;28;20403;-79
2023/12/08 00:06:07;;;;;;;20.17;12.88;;;;;;;;;;5073405;28;20399;-79
2023/12/08 00:08:33;;;;;;;20.80;13.43;;;;;;;;;;5072351;28;20408;-79
2023/12/08 00:10:59;;;;;;;20.30;12.43;;;;;;;;;;5095622;28;20483;-79
2023/12/08 00:13:25;;;;;;;21.35;13.07;;;;;;;;;;5069296;28;20429;-79
2023/12/08 00:15:51;;;;;;;19.58;12.73;;;;;;;;;;5057750;28;20417;-79
2023/12/08 00:18:17;;;;;;;20.05;13.02;;;;;;;;;;5072082;28;20396;-80
2023/12/08 00:20:43;;;;;;;20.13;13.07;;;;;;;;;;5071787;28;20801;-79
2023/12/08 00:23:09;;;;;;;18.92;13.00;;;;;;;;;;5088424;28;20399;-79
2023/12/08 00:25:35;;;;;;;18.95;13.32;;;;;;;;;;5091704;28;20732;-79
2023/12/08 00:28:03;;;;;;;20.63;13.18;;;;;;;;;;5057283;28;20877;-79
2023/12/08 00:30:29;;;;;;;19.13;12.57;;;;;;;;;;5070653;28;20431;-79
2023/12/08 00:32:56;;;;;;;18.90;12.55;;;;;;;;;;5056859;28;20409;-79
2023/12/08 00:35:22;;;;;;;17.98;13.38;;;;;;;;;;5083246;28;20406;-79
2023/12/08 00:37:48;;;;;;;20.88;12.98;;;;;;;;;;5071131;28;20751;-79
2023/12/08 00:40:14;;;;;;;19.90;13.40;;;;;;;;;;5079771;28;20412;-79
2023/12/08 00:42:41;;;;;;;20.38;13.57;;;;;;;;;;5080016;28;20409;-79
2023/12/08 00:45:07;;;;;;;21.10;14.30;;;;;;;;;;5071379;28;20422;-79
2023/12/08 00:47:33;;;;;;;21.83;14.35;;;;;;;;;;5070618;28;20480;-79
2023/12/08 00:49:59;;;;;;;20.45;14.07;;;;;;;;;;5086045;28;20414;-79
2023/12/08 00:52:25;;;;;;;23.17;14.55;;;;;;;;;;5071152;28;20404;-79
2023/12/08 00:54:51;;;;;;;20.73;13.73;;;;;;;;;;5070871;28;20434;-78
2023/12/08 00:57:17;;;;;;;21.43;14.57;;;;;;;;;;5075675;28;20479;-78
2023/12/08 00:59:43;;;;;;;20.40;14.52;;;;;;;;;;5091285;28;20394;-79
2023/12/08 01:02:09;;;;;;;21.40;14.20;;;;;;;;;;5077152;28;20802;-78
2023/12/08 01:04:35;;;;;;;21.15;14.93;;;;;;;;;;5069109;28;20552;-79
2023/12/08 01:07:01;;;;;;;21.30;15.65;;;;;;;;;;5069170;28;20402;-79
2023/12/08 01:09:27;;;;;;;21.90;15.32;;;;;;;;;;5079551;28;20400;-79
2023/12/08 01:11:53;;;;;;;21.40;14.77;;;;;;;;;;5071161;28;20400;-79
2023/12/08 01:14:19;;;;;;;21.90;14.82;;;;;;;;;;5070164;28;20400;-79
2023/12/08 01:16:45;;;;;;;22.80;15.32;;;;;;;;;;5074851;28;20425;-79
2023/12/08 01:19:12;;;;;;;21.98;15.65;;;;;;;;;;5084811;28;20402;-79
2023/12/08 01:21:38;;;;;;;21.30;14.63;;;;;;;;;;5070166;28;20523;-79
2023/12/08 01:24:05;;;;;;;23.45;15.18;;;;;;;;;;5070141;28;20400;-79
2023/12/08 01:26:32;;;;;;;20.98;13.93;;;;;;;;;;5096386;28;20407;-79
2023/12/08 01:28:58;;;;;;;22.25;15.00;;;;;;;;;;5074901;28;20407;-79
2023/12/08 01:31:24;;;;;;;20.55;14.43;;;;;;;;;;5070563;28;20407;-79
2023/12/08 01:33:51;;;;;;;22.27;14.65;;;;;;;;;;5069991;28;20900;-79
2023/12/08 01:36:17;;;;;;;22.40;14.30;;;;;;;;;;5068474;28;20594;-79
2023/12/08 01:38:46;;;;;;;23.80;15.32;;;;;;;;;;5070375;28;20438;-79
2023/12/08 01:41:16;;;;;;;22.25;14.60;;;;;;;;;;5075657;28;20403;-79
2023/12/08 01:43:45;;;;;;;21.77;15.38;;;;;;;;;;5070459;28;20407;-79
2023/12/08 01:46:13;;;;;;;22.42;15.20;;;;;;;;;;5070820;28;20410;-78
2023/12/08 01:48:39;;;;;;;20.70;14.55;;;;;;;;;;5070622;28;20403;-79
2023/12/08 01:51:06;;;;;;;21.38;14.98;;;;;;;;;;5071382;28;20948;-79
2023/12/08 01:53:32;;;;;;;21.55;15.77;;;;;;;;;;5107266;27;20398;-79
2023/12/08 01:55:58;;;;;;;22.38;15.98;;;;;;;;;;5063984;28;20418;-78
2023/12/08 01:58:26;;;;;;;22.47;14.53;;;;;;;;;;5076659;28;20404;-79
2023/12/08 02:00:53;;;;;;;20.55;14.43;;;;;;;;;;5069479;28;20518;-79
2023/12/08 02:03:20;;;;;;;23.63;15.07;;;;;;;;;;5069984;28;20406;-79
2023/12/08 02:05:50;;;;;;;23.10;15.57;;;;;;;;;;5104885;28;20779;-78
2023/12/08 02:08:17;;;;;;;20.73;15.77;;;;;;;;;;5072355;28;20812;-79
2023/12/08 02:10:43;;;;;;;22.77;16.48;;;;;;;;;;5066506;28;20407;-79
2023/12/08 02:13:11;;;;;;;24.13;16.02;;;;;;;;;;5069989;28;20811;-79
2023/12/08 02:15:37;;;;;;;22.70;15.38;;;;;;;;;;5071689;28;20404;-79
2023/12/08 02:18:03;;;;;;;21.35;16.25;;;;;;;;;;5072337;28;20398;-79
2023/12/08 02:20:30;;;;;;;22.33;15.43;;;;;;;;;;5069776;28;20400;-79
2023/12/08 02:22:56;;;;;;;22.90;16.20;;;;;;;;;;5069071;28;20443;-79
2023/12/08 02:25:22;;;;;;;23.80;15.98;;;;;;;;;;5076503;28;20431;-78
2023/12/08 02:27:48;;;;;;;24.02;16.65;;;;;;;;;;5069387;28;20519;-79
2023/12/08 02:30:16;;;;;;;25.55;15.95;;;;;;;;;;5056613;28;20410;-79
2023/12/08 02:32:44;;;;;;;22.67;16.20;;;;;;;;;;5073687;28;20407;-79
2023/12/08 02:35:13;;;;;;;24.57;16.37;;;;;;;;;;5069368;28;20403;-79
2023/12/08 02:37:40;;;;;;;22.38;15.90;;;;;;;;;;5069592;28;20506;-79
2023/12/08 02:40:07;;;;;;;22.58;15.88;;;;;;;;;;5087246;28;20411;-79
2023/12/08 02:42:33;;;;;;;24.67;15.95;;;;;;;;;;5052652;28;20422;-79
2023/12/08 02:45:00;;;;;;;26.25;16.58;;;;;;;;;;5049788;28;20405;-79
2023/12/08 02:47:26;;;;;;;24.58;16.63;;;;;;;;;;5083356;28;20443;-79
2023/12/08 02:49:52;;;;;;;24.70;16.33;;;;;;;;;;5094379;28;20430;-79
2023/12/08 02:52:18;;;;;;;24.40;16.85;;;;;;;;;;5076298;28;20396;-78
2023/12/08 02:54:44;;;;;;;25.90;16.10;;;;;;;;;;5069544;28;20410;-79
2023/12/08 02:57:10;;;;;;;25.92;17.15;;;;;;;;;;5069246;28;20507;-79
2023/12/08 02:59:36;;;;;;;23.20;16.00;;;;;;;;;;5052611;28;20493;-79
2023/12/08 03:02:02;;;;;;;24.40;15.88;;;;;;;;;;5069298;28;20419;-79
2023/12/08 03:04:28;;;;;;;26.67;17.55;;;;;;;;;;5069548;28;20400;-79
2023/12/08 03:06:54;;;;;;;25.25;18.73;;;;;;;;;;5104638;28;20508;-79
2023/12/08 03:09:20;;;;;;;24.45;16.55;;;;;;;;;;5079085;28;20393;-79
2023/12/08 03:11:46;;;;;;;24.83;16.23;;;;;;;;;;5074756;28;20398;-79
2023/12/08 03:14:12;;;;;;;24.40;16.45;;;;;;;;;;5073120;28;20408;-79
2023/12/08 03:16:38;;;;;;;26.08;17.05;;;;;;;;;;5072660;28;20426;-79
2023/12/08 03:19:04;;;;;;;24.25;16.77;;;;;;;;;;5073163;28;20485;-79
2023/12/08 03:21:30;;;;;;;25.48;17.05;;;;;;;;;;5072683;28;20399;-75
2023/12/08 03:23:56;;;;;;;25.17;17.60;;;;;;;;;;5072932;28;20771;-75
2023/12/08 03:26:22;;;;;;;24.58;16.88;;;;;;;;;;5056485;28;20962;-75
2023/12/08 03:28:49;;;;;;;24.95;16.63;;;;;;;;;;5063600;28;20401;-75
2023/12/08 03:31:25;;;;;;;25.67;17.77;;;;;;;;;;5092703;28;20995;-75
2023/12/08 03:33:51;;;;;;;24.10;16.42;;;;;;;;;;5088234;28;20417;-75
2023/12/08 03:36:17;;;;;;;25.25;16.70;;;;;;;;;;5092264;28;20432;-75
2023/12/08 03:38:43;;;;;;;24.00;17.15;;;;;;;;;;5092034;28;20432;-75
2023/12/08 03:41:11;;;;;;;26.30;17.90;;;;;;;;;;5103536;28;20481;-75
2023/12/08 03:43:37;;;;;;;27.35;17.35;;;;;;;;;;5059950;28;20933;-76
2023/12/08 03:46:03;;;;;;;28.25;18.75;;;;;;;;;;5096708;28;20397;-76
2023/12/08 03:48:29;;;;;;;28.23;19.45;;;;;;;;;;5056206;28;20403;-76
2023/12/08 03:50:55;;;;;;;25.53;19.10;;;;;;;;;;5071344;28;20396;-76
2023/12/08 03:53:21;;;;;;;27.02;18.60;;;;;;;;;;5071657;28;20484;-76
2023/12/08 03:55:47;;;;;;;29.30;17.92;;;;;;;;;;5056793;28;20442;-77
2023/12/08 03:58:13;;;;;;;27.05;19.02;;;;;;;;;;5059116;28;20415;-77
2023/12/08 04:00:40;;;;;;;29.13;19.52;;;;;;;;;;5071899;28;20411;-77
2023/12/08 04:03:06;;;;;;;30.93;19.70;;;;;;;;;;5071855;28;20461;-77
2023/12/08 04:05:32;;;;;;;31.55;19.42;;;;;;;;;;5054397;28;20405;-77
2023/12/08 04:07:58;;;;;;;31.00;20.23;;;;;;;;;;5079190;28;20400;-77
2023/12/08 04:10:24;;;;;;;31.10;20.80;;;;;;;;;;5071649;28;20457;-77
2023/12/08 04:12:50;;;;;;;32.60;20.08;;;;;;;;;;5074651;28;20751;-77
2023/12/08 04:15:16;;;;;;;34.13;20.65;;;;;;;;;;5070693;28;20494;-77
2023/12/08 04:17:42;;;;;;;32.40;20.63;;;;;;;;;;5082650;28;20427;-77
2023/12/08 04:20:08;;;;;;;33.28;21.02;;;;;;;;;;5071273;28;20423;-77
2023/12/08 04:22:34;;;;;;;35.03;21.70;;;;;;;;;;5072966;28;20392;-77
2023/12/08 04:25:00;;;;;;;36.55;21.65;;;;;;;;;;5064588;28;20400;-77
2023/12/08 04:27:26;;;;;;;37.35;21.80;;;;;;;;;;5113930;27;20433;-77
2023/12/08 04:29:52;;;;;;;39.75;23.70;;;;;;;;;;5041323;28;20463;-77
2023/12/08 04:32:18;;;;;;;38.78;24.52;;;;;;;;;;5103148;28;20439;-77
2023/12/08 04:34:44;;;;;;;40.85;24.15;;;;;;;;;;5070866;28;20432;-77
2023/12/08 04:37:10;;;;;;;43.50;24.25;;;;;;;;;;5078187;28;20910;-77
2023/12/08 04:39:36;;;;;;;60.92;27.45;;;;;;;;;;5060905;28;20424;-77
2023/12/08 04:42:03;;;;;;;46.33;25.40;;;;;;;;;;5078768;28;20443;-77
2023/12/08 04:44:29;;;;;;;47.92;27.27;;;;;;;;;;5055945;28;20400;-77
2023/12/08 04:46:55;;;;;;;46.50;26.33;;;;;;;;;;5049550;28;20440;-77
2023/12/08 04:49:21;;;;;;;55.42;27.00;;;;;;;;;;5053567;28;20461;-77
2023/12/08 04:51:47;;;;;;;49.20;27.50;;;;;;;;;;5095444;28;20481;-77
2023/12/08 04:54:13;;;;;;;52.70;25.85;;;;;;;;;;5079330;28;20429;-77
2023/12/08 04:56:39;;;;;;;49.30;26.40;;;;;;;;;;5074434;28;20799;-76
2023/12/08 04:59:05;;;;;;;51.63;26.50;;;;;;;;;;5056359;28;20751;-76
2023/12/08 05:01:31;;;;;;;55.65;28.02;;;;;;;;;;5073147;28;20415;-76
2023/12/08 05:03:57;;;;;;;56.35;27.20;;;;;;;;;;5055401;28;20407;-77
2023/12/08 05:06:26;;;;;;;55.13;27.48;;;;;;;;;;5069998;28;20429;-76
2023/12/08 05:08:52;;;;;;;73.35;28.50;;;;;;;;;;5057021;28;20884;-76
2023/12/08 05:11:18;;;;;;;54.95;28.80;;;;;;;;;;5073452;28;20400;-77
2023/12/08 05:13:44;;;;;;;55.83;29.73;;;;;;;;;;5088877;28;20408;-77
2023/12/08 05:16:14;;;;;;;56.17;27.98;;;;;;;;;;5074019;28;20454;-77
2023/12/08 05:18:40;;;;;;;64.10;31.55;;;;;;;;;;5070975;28;20526;-77
2023/12/08 05:21:07;;;;;;;128.68;33.17;;;;;;;;;;5070377;28;20445;-77
2023/12/08 05:23:33;;;;;;;109.03;32.47;;;;;;;;;;5087272;28;20438;-76
2023/12/08 05:25:59;;;;;;;216.25;44.10;;;;;;;;;;5079710;28;20418;-77
2023/12/08 05:28:25;;;;;;;152.98;34.95;;;;;;;;;;5060908;28;20439;-77
2023/12/08 05:30:53;;;;;;;65.03;29.40;;;;;;;;;;5090011;28;20416;-77
2023/12/08 05:33:19;;;;;;;99.15;30.02;;;;;;;;;;5057545;28;20887;-77
2023/12/08 05:35:45;;;;;;;67.38;28.60;;;;;;;;;;5071517;28;20759;-76
2023/12/08 05:38:11;;;;;;;150.93;36.30;;;;;;;;;;5075752;28;20396;-76
2023/12/08 05:40:37;;;;;;;85.95;32.90;;;;;;;;;;5076735;28;20401;-76
2023/12/08 05:43:03;;;;;;;498.20;57.30;;;;;;;;;;5070141;28;20411;-76
2023/12/08 05:45:30;;;;;;;170.83;37.13;;;;;;;;;;5077644;28;20432;-76
2023/12/08 05:47:56;;;;;;;75.13;28.13;;;;;;;;;;5077862;28;20401;-76
2023/12/08 05:50:22;;;;;;;180.53;36.13;;;;;;;;;;5084497;28;20862;-76
2023/12/08 05:52:48;;;;;;;147.48;34.60;;;;;;;;;;5051894;28;20438;-76
2023/12/08 05:55:14;;;;;;;204.48;35.65;;;;;;;;;;5070276;28;20395;-76
2023/12/08 05:57:40;;;;;;;106.28;29.45;;;;;;;;;;5080490;28;20419;-76
2023/12/08 06:00:10;;;;;;;135.53;34.07;;;;;;;;;;5070163;28;20997;-76
2023/12/08 06:02:36;;;;;;;250.75;42.03;;;;;;;;;;5069690;28;20416;-76
2023/12/08 06:05:02;;;;;;;238.70;36.97;;;;;;;;;;5069917;28;20434;-76
2023/12/08 06:07:28;;;;;;;144.60;34.72;;;;;;;;;;5070321;28;20403;-76
2023/12/08 06:09:54;;;;;;;80.07;29.38;;;;;;;;;;5053872;28;20427;-77
2023/12/08 06:12:20;;;;;;;450.33;53.38;;;;;;;;;;5071095;28;20449;-76
2023/12/08 06:14:46;;;;;;;107.07;29.53;;;;;;;;;;5061429;28;20755;-75
2023/12/08 06:17:12;;;;;;;121.43;32.05;;;;;;;;;;5068919;28;20430;-76
2023/12/08 06:19:39;;;;;;;237.13;41.42;;;;;;;;;;5069425;28;20497;-75
2023/12/08 06:22:05;;;;;;;67.50;29.60;;;;;;;;;;5053715;28;20805;-75
2023/12/08 06:24:31;;;;;;;419.43;56.90;;;;;;;;;;5069570;28;20396;-76
2023/12/08 06:26:57;;;;;;;115.97;32.22;;;;;;;;;;5052975;28;20427;-76
2023/12/08 06:29:23;;;;;;;80.80;29.45;;;;;;;;;;5070149;28;20461;-76
2023/12/08 06:31:49;;;;;;;133.82;35.45;;;;;;;;;;5068542;28;20411;-76
2023/12/08 06:34:15;;;;;;;533.70;64.25;;;;;;;;;;5086193;28;20484;-76
2023/12/08 06:36:45;;;;;;;90.50;33.93;;;;;;;;;;5078028;28;20420;-76
2023/12/08 06:39:21;;;;;;;132.00;34.15;;;;;;;;;;5075455;28;20791;-76
2023/12/08 06:41:47;;;;;;;73.20;32.13;;;;;;;;;;5105724;27;20473;-76
2023/12/08 06:44:13;;;;;;;65.55;29.63;;;;;;;;;;5073987;28;20395;-80
2023/12/08 06:46:39;;;;;;;140.07;36.00;;;;;;;;;;5062174;28;20404;-81
2023/12/08 06:49:05;;;;;;;367.02;54.20;;;;;;;;;;5073099;28;20407;-81
2023/12/08 06:51:33;;;;;;;64.70;34.28;;;;;;;;;;5063438;28;20400;-83
2023/12/08 06:53:59;;;;;;;65.40;31.88;;;;;;;;;;5056643;28;20407;-82
2023/12/08 06:56:25;;;;;;;309.85;55.92;;;;;;;;;;5080750;28;20501;-82
2023/12/08 06:58:51;;;;;;;68.40;31.58;;;;;;;;;;5085566;28;20396;-82
2023/12/08 07:01:18;;;;;;;63.25;32.88;;;;;;;;;;5064404;28;20414;-82
2023/12/08 07:03:44;;;;;;;61.75;32.25;;;;;;;;;;5078590;28;20725;-82
2023/12/08 07:06:10;;;;;;;308.53;53.93;;;;;;;;;;5073033;28;20434;-82
2023/12/08 07:08:36;;;;;;;145.95;35.97;;;;;;;;;;5093218;28;20402;-77
2023/12/08 07:11:02;;;;;;;62.15;32.67;;;;;;;;;;5067742;28;20785;-77
2023/12/08 07:13:29;;;;;;;65.53;31.23;;;;;;;;;;5068632;28;20442;-77
2023/12/08 07:15:55;;;;;;;77.65;30.80;;;;;;;;;;5077494;28;20418;-77
2023/12/08 07:18:21;;;;;;;135.38;36.20;;;;;;;;;;5062784;28;20446;-77
2023/12/08 07:20:47;;;;;;;65.32;31.70;;;;;;;;;;5076427;28;20451;-77
2023/12/08 07:23:13;;;;;;;61.00;28.93;;;;;;;;;;5061833;28;20984;-77
2023/12/08 07:25:39;;;;;;;62.28;29.48;;;;;;;;;;5088686;28;20806;-77
2023/12/08 07:28:05;;;;;;;59.63;29.63;;;;;;;;;;5075794;28;20437;-77
2023/12/08 07:30:31;;;;;;;65.65;29.17;;;;;;;;;;5049172;28;20459;-77
2023/12/08 07:32:57;;;;;;;58.80;28.27;;;;;;;;;;5081760;28;20424;-77
2023/12/08 07:35:23;;;;;;;56.37;29.30;;;;;;;;;;5074606;28;20442;-77
2023/12/08 07:37:49;;;;;;;139.20;33.28;;;;;;;;;;5073644;28;20433;-77
2023/12/08 07:40:16;;;;;;;55.77;27.40;;;;;;;;;;5040625;28;20400;-78
2023/12/08 07:42:43;;;;;;;60.85;27.42;;;;;;;;;;5072792;28;20884;-77
2023/12/08 07:45:10;;;;;;;58.90;28.98;;;;;;;;;;5055527;28;20756;-76
2023/12/08 07:47:38;;;;;;;166.23;33.42;;;;;;;;;;5080795;28;20408;-76
2023/12/08 07:50:05;;;;;;;57.10;28.33;;;;;;;;;;5072797;28;20438;-76
2023/12/08 07:52:31;;;;;;;59.05;29.63;;;;;;;;;;5068571;28;20933;-76
2023/12/08 07:54:58;;;;;;;56.13;27.98;;;;;;;;;;5072308;28;20918;-76
2023/12/08 07:57:24;;;;;;;153.80;34.10;;;;;;;;;;5088767;28;20427;-76
2023/12/08 07:59:50;;;;;;;56.80;28.67;;;;;;;;;;5076409;28;20402;-76
2023/12/08 08:02:16;;;;;;;56.55;27.33;;;;;;;;;;5083397;28;20477;-76
2023/12/08 08:04:42;;;;;;;53.47;26.80;;;;;;;;;;5072481;28;20392;-76
2023/12/08 08:07:08;;;;;;;69.40;28.35;;;;;;;;;;5071592;28;20400;-76
2023/12/08 08:09:34;;;;;;;52.03;27.55;;;;;;;;;;5086779;28;20420;-76
2023/12/08 08:12:02;;;;;;;55.33;27.73;;;;;;;;;;5071933;28;20411;-76
2023/12/08 08:14:28;;;;;;;52.53;28.23;;;;;;;;;;5072149;28;20412;-76
2023/12/08 08:16:54;;;;;;;84.45;29.55;;;;;;;;;;5090199;28;20427;-75
2023/12/08 08:19:20;;;;;;;80.70;29.45;;;;;;;;;;5072180;28;20396;-75
2023/12/08 08:21:46;;;;;;;55.92;28.30;;;;;;;;;;5073145;28;20475;-75
2023/12/08 08:24:12;;;;;;;72.85;32.33;;;;;;;;;;5070185;28;20400;-75
2023/12/08 08:26:42;;;;;;;218.32;38.13;;;;;;;;;;5059462;28;20399;-75
2023/12/08 08:29:09;;;;;;;200.35;37.40;;;;;;;;;;5070882;28;20426;-76
2023/12/08 08:31:35;;;;;;;77.15;29.38;;;;;;;;;;5070880;28;20499;-75
2023/12/08 08:34:03;;;;;;;182.45;36.85;;;;;;;;;;5075347;28;20403;-76
2023/12/08 08:36:29;;;;;;;187.18;35.63;;;;;;;;;;5094158;28;20423;-76
2023/12/08 08:38:55;;;;;;;433.75;53.95;;;;;;;;;;5072468;28;20461;-75
2023/12/08 08:41:22;;;;;;;59.72;30.38;;;;;;;;;;5069892;28;20768;-75
2023/12/08 08:43:48;;;;;;;59.10;29.30;;;;;;;;;;5068514;28;20438;-75
2023/12/08 08:46:15;;;;;;;185.48;36.22;;;;;;;;;;5054334;28;20498;-76
2023/12/08 08:48:41;;;;;;;88.90;30.75;;;;;;;;;;5085523;28;20398;-76
2023/12/08 08:51:07;;;;;;;86.45;30.67;;;;;;;;;;5086008;28;20397;-75
2023/12/08 08:53:33;;;;;;;60.53;29.90;;;;;;;;;;5069871;28;20415;-76
2023/12/08 08:55:59;;;;;;;129.55;35.30;;;;;;;;;;5054587;28;20538;-76
2023/12/08 08:58:26;;;;;;;344.90;44.70;;;;;;;;;;5062051;28;20844;-76
2023/12/08 09:00:54;;;;;;;57.00;29.20;;;;;;;;;;5054853;28;20457;-76
2023/12/08 09:03:20;;;;;;;57.50;27.92;;;;;;;;;;5093392;28;20402;-76
2023/12/08 09:05:46;;;;;;;87.45;31.17;;;;;;;;;;5080674;28;20486;-76
2023/12/08 09:08:13;;;;;;;58.50;27.57;;;;;;;;;;5070406;28;20475;-75
2023/12/08 09:10:44;;;;;;;58.00;29.08;;;;;;;;;;5055136;28;20461;-75
2023/12/08 09:13:10;;;;;;;52.28;27.00;;;;;;;;;;5069084;28;20404;-76
2023/12/08 09:15:36;;;;;;;76.78;29.73;;;;;;;;;;5051372;28;20493;-75
2023/12/08 09:18:03;;;;;;;309.35;41.67;;;;;;;;;;5069524;28;20400;-75
2023/12/08 09:20:29;;;;;;;59.33;29.55;;;;;;;;;;5054120;28;20887;-75
2023/12/08 09:22:55;;;;;;;56.70;28.65;;;;;;;;;;5071884;28;20392;-74
2023/12/08 09:25:24;;;;;;;56.53;28.35;;;;;;;;;;5070014;28;20399;-75
2023/12/08 09:27:50;;;;;;;131.80;32.10;;;;;;;;;;5068248;28;20395;-75
2023/12/08 09:30:16;;;;;;;55.92;27.48;;;;;;;;;;5066718;28;20412;-75
2023/12/08 09:32:42;;;;;;;55.97;28.10;;;;;;;;;;5063189;28;20423;-75
2023/12/08 09:35:08;;;;;;;56.30;28.25;;;;;;;;;;5080579;28;20421;-74
2023/12/08 09:37:34;;;;;;;136.15;32.70;;;;;;;;;;5056929;28;20414;-75
2023/12/08 09:40:00;;;;;;;60.97;30.05;;;;;;;;;;5076162;28;20396;-75
2023/12/08 09:42:53;;;;;;;58.53;28.17;;;;;;;;;;5069925;28;20792;-75
2023/12/08 09:45:19;;;;;;;56.92;27.02;;;;;;;;;;5067277;28;20863;-75
2023/12/08 09:47:48;;;;;;;59.92;28.38;;;;;;;;;;5069336;28;20476;-75
2023/12/08 09:50:15;;;;;;;61.20;29.20;;;;;;;;;;5067321;28;20915;-75
2023/12/08 09:52:41;;;;;;;59.28;29.52;;;;;;;;;;5069286;28;20466;-75
2023/12/08 09:55:07;;;;;;;58.85;27.42;;;;;;;;;;5068433;28;20404;-75
2023/12/08 09:57:37;;;;;;;78.40;28.37;;;;;;;;;;5052033;28;20525;-75
2023/12/08 10:00:11;;;;;;;67.05;28.75;;;;;;;;;;5066344;28;20440;-75
2023/12/08 10:02:37;;;;;;;59.05;27.85;;;;;;;;;;5096905;28;20412;-80
2023/12/08 10:05:04;;;;;;;62.43;28.80;;;;;;;;;;5072609;28;20396;-81
2023/12/08 10:07:33;;;;;;;196.18;38.22;;;;;;;;;;5066582;28;20410;-80
2023/12/08 10:10:02;;;;;;;74.53;32.13;;;;;;;;;;5053883;28;20491;-81
2023/12/08 10:12:28;;;;;;;63.40;29.67;;;;;;;;;;5087534;28;20406;-80
2023/12/08 10:14:56;;;;;;;63.03;29.15;;;;;;;;;;5078062;28;20435;-80
2023/12/08 10:17:22;;;;;;;148.10;35.30;;;;;;;;;;5075452;28;20423;-81
2023/12/08 10:19:49;;;;;;;69.47;29.95;;;;;;;;;;5050557;28;20474;-80
2023/12/08 10:22:16;;;;;;;69.93;30.77;;;;;;;;;;5091995;28;20788;-80
2023/12/08 10:24:42;;;;;;;64.97;30.83;;;;;;;;;;5073377;28;20484;-79
2023/12/08 10:27:09;;;;;;;66.85;30.33;;;;;;;;;;5073948;28;20483;-83
2023/12/08 10:29:36;;;;;;;220.10;38.22;;;;;;;;;;5056862;28;21038;-81
2023/12/08 10:32:06;;;;;;;160.15;35.45;;;;;;;;;;5072488;28;20446;-84
2023/12/08 10:34:32;;;;;;;73.22;31.15;;;;;;;;;;5087898;28;20399;-81
2023/12/08 10:36:58;;;;;;;302.37;47.83;;;;;;;;;;5086505;28;20422;-77
2023/12/08 10:39:27;;;;;;;111.70;35.28;;;;;;;;;;5107308;27;20430;-76
2023/12/08 10:41:54;;;;;;;71.22;30.48;;;;;;;;;;5049060;28;20835;-75
2023/12/08 10:44:23;;;;;;;75.93;31.73;;;;;;;;;;5072720;28;20778;-76
2023/12/08 10:46:49;;;;;;;79.45;34.42;;;;;;;;;;5074451;28;20721;-75
2023/12/08 10:49:19;;;;;;;78.37;34.17;;;;;;;;;;5089852;28;21009;-76
2023/12/08 10:51:49;;;;;;;82.47;35.28;;;;;;;;;;5075704;28;20400;-75
2023/12/08 10:54:18;;;;;;;77.57;33.63;;;;;;;;;;5074653;28;20403;-76
2023/12/08 10:56:45;;;;;;;294.87;50.00;;;;;;;;;;5075971;28;20478;-82
2023/12/08 10:59:17;;;;;;;287.70;48.27;;;;;;;;;;5079316;28;20431;-83
2023/12/08 11:01:44;;;;;;;95.18;36.25;;;;;;;;;;5074729;28;20434;-83
2023/12/08 11:04:12;;;;;;;92.78;36.55;;;;;;;;;;5088554;28;20815;-81
2023/12/08 11:06:48;;;;;;;188.63;41.92;;;;;;;;;;5079971;28;20416;-81
2023/12/08 11:09:15;;;;;;;105.93;37.42;;;;;;;;;;5076706;28;20497;-83
2023/12/08 11:11:45;;;;;;;102.00;36.40;;;;;;;;;;5078600;28;20404;-83
2023/12/08 11:14:19;;;;;;;100.55;38.35;;;;;;;;;;5080626;28;20439;-81
2023/12/08 11:16:53;;;;;;;346.48;56.85;;;;;;;;;;5096019;27;20421;-82
2023/12/08 11:19:20;;;;;;;231.77;49.85;;;;;;;;;;5071869;28;20473;-82
2023/12/08 11:21:46;;;;;;;121.78;39.63;;;;;;;;;;5072792;28;20404;-83
2023/12/08 11:24:12;;;;;;;116.10;40.83;;;;;;;;;;5111630;27;20398;-84
2023/12/08 11:26:46;;;;;;;117.93;41.30;;;;;;;;;;5073065;28;20453;-84
2023/12/08 11:29:15;;;;;;;158.90;43.40;;;;;;;;;;5080344;28;20406;-85
2023/12/08 11:31:41;;;;;;;122.85;40.00;;;;;;;;;;5090125;28;20759;-85
2023/12/08 11:34:39;;;;;;;119.53;39.92;;;;;;;;;;5072534;28;20407;-84
2023/12/08 11:37:08;;;;;;;130.88;41.55;;;;;;;;;;5045026;28;20503;-83
2023/12/08 11:39:34;;;;;;;398.83;57.83;;;;;;;;;;5071679;28;20404;-84
2023/12/08 11:42:04;;;;;;;131.02;41.17;;;;;;;;;;5094669;27;20400;-83
2023/12/08 11:44:33;;;;;;;767.10;119.40;;;;;;;;;;5039277;28;20751;-84
2023/12/08 11:47:03;;;;;;;230.10;46.40;;;;;;;;;;5088180;28;20408;-83
2023/12/08 11:49:30;;;;;;;133.10;41.20;;;;;;;;;;5100243;27;20402;-84
2023/12/08 11:52:06;;;;;;;129.20;40.55;;;;;;;;;;5071380;28;20919;-84
2023/12/08 11:54:55;;;;;;;125.97;40.00;;;;;;;;;;5055246;28;20796;-84
2023/12/08 11:57:21;;;;;;;145.50;42.72;;;;;;;;;;5099387;28;20902;-84
2023/12/08 11:59:47;;;;;;;339.42;55.72;;;;;;;;;;5086586;28;20914;-83
2023/12/08 12:02:13;;;;;;;153.73;43.30;;;;;;;;;;5072558;28;20420;-84
2023/12/08 12:04:39;;;;;;;141.38;42.50;;;;;;;;;;5059101;28;20814;-84
2023/12/08 12:07:08;;;;;;;186.60;47.58;;;;;;;;;;5060141;28;20783;-84
2023/12/08 12:09:34;;;;;;;232.70;47.40;;;;;;;;;;5073356;28;20488;-84
2023/12/08 12:12:07;;;;;;;149.47;43.53;;;;;;;;;;5076718;28;20424;-84
2023/12/08 12:14:34;;;;;;;142.43;43.30;;;;;;;;;;5076501;28;20778;-83
2023/12/08 12:17:00;;;;;;;384.02;60.10;;;;;;;;;;5070360;28;20814;-84
2023/12/08 12:19:26;;;;;;;315.55;54.35;;;;;;;;;;5080149;28;20397;-83
2023/12/08 12:21:52;;;;;;;156.38;45.15;;;;;;;;;;5051081;28;20476;-83
2023/12/08 12:24:18;;;;;;;155.00;46.20;;;;;;;;;;5071405;28;20407;-82
2023/12/08 12:26:44;;;;;;;153.15;44.67;;;;;;;;;;5088794;28;20395;-83
2023/12/08 12:29:10;;;;;;;151.60;44.33;;;;;;;;;;5077152;28;20428;-83
2023/12/08 12:31:37;;;;;;;156.30;45.67;;;;;;;;;;5077292;28;20415;-83
2023/12/08 12:34:03;;;;;;;165.13;47.53;;;;;;;;;;5070939;28;20403;-83
2023/12/08 12:36:29;;;;;;;160.32;45.72;;;;;;;;;;5054048;28;20423;-83
2023/12/08 12:38:55;;;;;;;247.90;52.30;;;;;;;;;;5052290;28;20937;-84
2023/12/08 12:41:23;;;;;;;153.77;44.53;;;;;;;;;;5051331;28;20394;-84
2023/12/08 12:43:49;;;;;;;148.23;45.55;;;;;;;;;;5105105;28;20887;-83
2023/12/08 12:46:15;;;;;;;174.57;49.85;;;;;;;;;;5071024;28;20425;-84
2023/12/08 12:48:41;;;;;;;187.13;49.17;;;;;;;;;;5055592;28;20798;-82
2023/12/08 12:51:07;;;;;;;198.93;48.53;;;;;;;;;;5071302;28;20439;-82
2023/12/08 12:53:43;;;;;;;185.27;48.30;;;;;;;;;;5086240;28;20752;-82
2023/12/08 12:56:09;;;;;;;207.33;50.03;;;;;;;;;;5070135;28;20415;-82
2023/12/08 12:58:35;;;;;;;190.40;48.92;;;;;;;;;;5076081;28;20401;-83
2023/12/08 13:01:10;;;;;;;208.63;48.30;;;;;;;;;;5058087;28;20420;-82
2023/12/08 13:03:36;;;;;;;212.32;49.10;;;;;;;;;;5085811;28;20737;-82
2023/12/08 13:06:06;;;;;;;208.05;48.67;;;;;;;;;;5070183;28;20480;-82
2023/12/08 13:08:41;;;;;;;724.70;86.43;;;;;;;;;;5102338;28;20408;-82
2023/12/08 13:11:07;;;;;;;259.50;54.88;;;;;;;;;;5067023;28;20415;-83
2023/12/08 13:13:36;;;;;;;214.52;49.75;;;;;;;;;;5085875;28;20395;-82
2023/12/08 13:16:02;;;;;;;244.68;55.95;;;;;;;;;;5070263;28;20473;-82
2023/12/08 13:18:29;;;;;;;227.40;51.13;;;;;;;;;;5083846;28;20914;-82
2023/12/08 13:20:55;;;;;;;244.25;51.78;;;;;;;;;;5070449;28;20408;-83
2023/12/08 13:23:21;;;;;;;217.00;50.28;;;;;;;;;;5085368;28;20404;-82
2023/12/08 13:25:48;;;;;;;208.75;50.17;;;;;;;;;;5068815;28;20406;-82
2023/12/08 13:28:14;;;;;;;480.83;71.57;;;;;;;;;;5069183;28;20434;-82
2023/12/08 13:30:40;;;;;;;236.35;52.58;;;;;;;;;;5050810;28;20422;-82
2023/12/08 13:33:08;;;;;;;218.73;52.28;;;;;;;;;;5069159;28;20404;-82
2023/12/08 13:35:35;;;;;;;227.73;52.70;;;;;;;;;;5070169;28;20399;-82
2023/12/08 13:38:01;;;;;;;209.27;50.85;;;;;;;;;;5087108;28;20822;-82
2023/12/08 13:40:28;;;;;;;251.30;52.63;;;;;;;;;;5069918;28;20959;-82
2023/12/08 13:42:54;;;;;;;222.02;55.58;;;;;;;;;;5052042;28;21010;-83
2023/12/08 13:45:20;;;;;;;227.73;53.87;;;;;;;;;;5073813;28;20395;-83
2023/12/08 13:47:46;;;;;;;214.60;51.92;;;;;;;;;;5074819;28;20426;-82
2023/12/08 13:50:13;;;;;;;898.25;102.47;;;;;;;;;;5053815;28;20405;-83
2023/12/08 13:52:39;;;;;;;220.18;53.05;;;;;;;;;;5070430;28;20439;-82
2023/12/08 13:55:05;;;;;;;248.30;59.58;;;;;;;;;;5052030;28;20407;-83
2023/12/08 13:57:31;;;;;;;231.15;56.65;;;;;;;;;;5070143;28;20451;-82
2023/12/08 13:59:57;;;;;;;604.67;81.15;;;;;;;;;;5070495;28;20435;-82
2023/12/08 14:02:23;;;;;;;233.40;54.67;;;;;;;;;;5068604;28;20419;-82
2023/12/08 14:04:50;;;;;;;217.02;55.03;;;;;;;;;;5079500;28;20493;-82
2023/12/08 14:07:16;;;;;;;532.80;79.15;;;;;;;;;;5035990;28;20432;-82
2023/12/08 14:09:42;;;;;;;247.13;56.97;;;;;;;;;;5081188;28;20755;-82